sensor_id;sensor_type;location;lat;lon;timestamp;pressure;altitude;pressure_sealevel;temperature;humidity
27712;BME280;2377;51.734;8.950;2022-07-23T00:00:44;98135.72;;;17.50;85.35
27712;BME280;2377;51.734;8.950;2022-07-23T00:03:12;98124.34;;;17.51;85.06
27712;BME280;2377;51.734;8.950;2022-07-23T00:05:40;98128.75;;;17.51;85.10
27712;BME280;2377;51.734;8.950;2022-07-23T00:08:07;98132.59;;;17.48;84.87
27712;BME280;2377;51.734;8.950;2022-07-23T00:10:35;98129.47;;;17.46;85.04
27712;BME280;2377;51.734;8.950;2022-07-23T00:13:02;98119.38;;;17.45;84.95
27712;BME280;2377;51.734;8.950;2022-07-23T00:15:30;98114.47;;;17.43;85.12
27712;BME280;2377;51.734;8.950;2022-07-23T00:17:58;98110.59;;;17.41;85.60
27712;BME280;2377;51.734;8.950;2022-07-23T00:20:25;98127.38;;;17.38;85.63
27712;BME280;2377;51.734;8.950;2022-07-23T00:22:54;98128.38;;;17.37;85.86
27712;BME280;2377;51.734;8.950;2022-07-23T00:25:23;98126.84;;;17.36;85.79
27712;BME280;2377;51.734;8.950;2022-07-23T00:27:50;98126.31;;;17.34;86.14
27712;BME280;2377;51.734;8.950;2022-07-23T00:30:17;98128.66;;;17.36;86.25
27712;BME280;2377;51.734;8.950;2022-07-23T00:32:46;98116.25;;;17.38;86.16
27712;BME280;2377;51.734;8.950;2022-07-23T00:35:16;98106.69;;;17.38;85.91
27712;BME280;2377;51.734;8.950;2022-07-23T00:37:43;98089.88;;;17.36;85.63
27712;BME280;2377;51.734;8.950;2022-07-23T00:40:11;98092.19;;;17.32;85.69
27712;BME280;2377;51.734;8.950;2022-07-23T00:42:39;98083.88;;;17.30;85.75
27712;BME280;2377;51.734;8.950;2022-07-23T00:45:07;98084.41;;;17.27;85.66
27712;BME280;2377;51.734;8.950;2022-07-23T00:47:35;98093.66;;;17.23;86.04
27712;BME280;2377;51.734;8.950;2022-07-23T00:50:05;98097.28;;;17.22;85.88
27712;BME280;2377;51.734;8.950;2022-07-23T00:52:35;98094.16;;;17.20;86.35
27712;BME280;2377;51.734;8.950;2022-07-23T00:55:04;98089.75;;;17.15;86.75
27712;BME280;2377;51.734;8.950;2022-07-23T00:57:31;98091.25;;;17.11;87.04
27712;BME280;2377;51.734;8.950;2022-07-23T00:59:59;98091.50;;;17.09;87.15
27712;BME280;2377;51.734;8.950;2022-07-23T01:02:27;98097.69;;;17.08;86.91
27712;BME280;2377;51.734;8.950;2022-07-23T01:04:55;98092.53;;;17.08;86.95
27712;BME280;2377;51.734;8.950;2022-07-23T01:07:22;98102.09;;;17.08;86.88
27712;BME280;2377;51.734;8.950;2022-07-23T01:09:52;98097.16;;;17.06;87.27
27712;BME280;2377;51.734;8.950;2022-07-23T01:12:19;98113.69;;;17.05;87.66
27712;BME280;2377;51.734;8.950;2022-07-23T01:14:54;98109.53;;;17.04;87.69
27712;BME280;2377;51.734;8.950;2022-07-23T01:17:21;98115.25;;;17.06;87.55
27712;BME280;2377;51.734;8.950;2022-07-23T01:19:48;98131.81;;;17.10;87.56
27712;BME280;2377;51.734;8.950;2022-07-23T01:22:19;98127.19;;;17.13;87.15
27712;BME280;2377;51.734;8.950;2022-07-23T01:24:48;98129.78;;;17.13;86.84
27712;BME280;2377;51.734;8.950;2022-07-23T01:27:15;98135.47;;;17.15;87.08
27712;BME280;2377;51.734;8.950;2022-07-23T01:29:43;98138.06;;;17.15;87.01
27712;BME280;2377;51.734;8.950;2022-07-23T01:32:10;98135.22;;;17.16;86.94
27712;BME280;2377;51.734;8.950;2022-07-23T01:34:37;98123.59;;;17.19;86.72
27712;BME280;2377;51.734;8.950;2022-07-23T01:37:06;98132.16;;;17.19;86.75
27712;BME280;2377;51.734;8.950;2022-07-23T01:39:33;98145.56;;;17.21;87.10
27712;BME280;2377;51.734;8.950;2022-07-23T01:42:02;98143.78;;;17.22;87.07
27712;BME280;2377;51.734;8.950;2022-07-23T01:44:29;98142.22;;;17.21;87.35
27712;BME280;2377;51.734;8.950;2022-07-23T01:46:56;98145.56;;;17.21;87.18
27712;BME280;2377;51.734;8.950;2022-07-23T01:49:23;98144.03;;;17.20;87.13
27712;BME280;2377;51.734;8.950;2022-07-23T01:51:51;98136.81;;;17.22;86.92
27712;BME280;2377;51.734;8.950;2022-07-23T01:54:27;98124.13;;;17.21;86.94
27712;BME280;2377;51.734;8.950;2022-07-23T01:56:55;98110.22;;;17.22;86.98
27712;BME280;2377;51.734;8.950;2022-07-23T01:59:24;98112.25;;;17.20;87.54
27712;BME280;2377;51.734;8.950;2022-07-23T02:01:52;98108.63;;;17.21;87.58
27712;BME280;2377;51.734;8.950;2022-07-23T02:04:20;98106.31;;;17.19;87.91
27712;BME280;2377;51.734;8.950;2022-07-23T02:06:49;98129.81;;;17.18;88.03
27712;BME280;2377;51.734;8.950;2022-07-23T02:09:16;98126.91;;;17.14;88.52
27712;BME280;2377;51.734;8.950;2022-07-23T02:11:44;98119.69;;;17.16;88.46
27712;BME280;2377;51.734;8.950;2022-07-23T02:14:11;98118.94;;;17.16;88.31
27712;BME280;2377;51.734;8.950;2022-07-23T02:16:39;98110.94;;;17.17;88.07
27712;BME280;2377;51.734;8.950;2022-07-23T02:19:06;98120.00;;;17.20;88.10
27712;BME280;2377;51.734;8.950;2022-07-23T02:21:33;98120.00;;;17.20;88.27
27712;BME280;2377;51.734;8.950;2022-07-23T02:24:01;98122.84;;;17.23;88.70
27712;BME280;2377;51.734;8.950;2022-07-23T02:26:28;98110.69;;;17.19;88.25
27712;BME280;2377;51.734;8.950;2022-07-23T02:28:58;98100.31;;;17.14;88.33
27712;BME280;2377;51.734;8.950;2022-07-23T02:31:25;98091.75;;;17.08;88.64
27712;BME280;2377;51.734;8.950;2022-07-23T02:33:53;98087.34;;;17.03;88.90
27712;BME280;2377;51.734;8.950;2022-07-23T02:36:21;98082.41;;;17.02;88.89
27712;BME280;2377;51.734;8.950;2022-07-23T02:38:48;98068.19;;;16.99;89.03
27712;BME280;2377;51.734;8.950;2022-07-23T02:41:15;98070.53;;;17.01;89.44
27712;BME280;2377;51.734;8.950;2022-07-23T02:43:43;98091.97;;;17.01;89.37
27712;BME280;2377;51.734;8.950;2022-07-23T02:46:10;98094.81;;;17.05;89.88
27712;BME280;2377;51.734;8.950;2022-07-23T02:48:37;98103.59;;;17.04;89.76
27712;BME280;2377;51.734;8.950;2022-07-23T02:51:06;98090.63;;;16.94;90.20
27712;BME280;2377;51.734;8.950;2022-07-23T02:53:33;98087.78;;;16.95;90.25
27712;BME280;2377;51.734;8.950;2022-07-23T02:56:00;98073.34;;;16.99;89.87
27712;BME280;2377;51.734;8.950;2022-07-23T02:58:27;98068.72;;;17.01;89.78
27712;BME280;2377;51.734;8.950;2022-07-23T03:00:54;98068.22;;;17.04;89.51
27712;BME280;2377;51.734;8.950;2022-07-23T03:03:21;98071.88;;;17.08;89.37
27712;BME280;2377;51.734;8.950;2022-07-23T03:05:48;98072.63;;;17.09;89.50
27712;BME280;2377;51.734;8.950;2022-07-23T03:08:17;98077.03;;;17.08;89.64
27712;BME280;2377;51.734;8.950;2022-07-23T03:10:44;98071.38;;;17.11;89.52
27712;BME280;2377;51.734;8.950;2022-07-23T03:13:11;98051.19;;;17.08;89.33
27712;BME280;2377;51.734;8.950;2022-07-23T03:15:38;98065.38;;;17.01;89.61
27712;BME280;2377;51.734;8.950;2022-07-23T03:18:05;98075.41;;;16.97;89.82
27712;BME280;2377;51.734;8.950;2022-07-23T03:20:32;98071.00;;;16.98;89.92
27712;BME280;2377;51.734;8.950;2022-07-23T03:23:00;98067.91;;;16.96;89.56
27712;BME280;2377;51.734;8.950;2022-07-23T03:25:28;98077.22;;;16.97;89.36
27712;BME280;2377;51.734;8.950;2022-07-23T03:27:55;98059.91;;;16.97;89.34
27712;BME280;2377;51.734;8.950;2022-07-23T03:30:23;98060.69;;;16.98;88.98
27712;BME280;2377;51.734;8.950;2022-07-23T03:32:50;98053.72;;;16.98;88.88
27712;BME280;2377;51.734;8.950;2022-07-23T03:35:17;98049.56;;;16.97;89.00
27712;BME280;2377;51.734;8.950;2022-07-23T03:37:44;98044.41;;;16.97;88.82
27712;BME280;2377;51.734;8.950;2022-07-23T03:40:11;98045.91;;;16.93;88.69
27712;BME280;2377;51.734;8.950;2022-07-23T03:42:40;98050.03;;;16.89;88.98
27712;BME280;2377;51.734;8.950;2022-07-23T03:45:09;98050.50;;;16.86;89.21
27712;BME280;2377;51.734;8.950;2022-07-23T03:47:36;98047.94;;;16.86;89.29
27712;BME280;2377;51.734;8.950;2022-07-23T03:50:06;98052.81;;;16.82;89.70
27712;BME280;2377;51.734;8.950;2022-07-23T03:52:33;98055.66;;;16.81;89.54
27712;BME280;2377;51.734;8.950;2022-07-23T03:55:00;98057.75;;;16.84;89.19
27712;BME280;2377;51.734;8.950;2022-07-23T03:57:27;98055.66;;;16.81;88.95
27712;BME280;2377;51.734;8.950;2022-07-23T03:59:56;98056.88;;;16.78;88.82
27712;BME280;2377;51.734;8.950;2022-07-23T04:02:23;98072.09;;;16.75;88.65
27712;BME280;2377;51.734;8.950;2022-07-23T04:04:50;98070.50;;;16.68;89.01
27712;BME280;2377;51.734;8.950;2022-07-23T04:07:18;98069.94;;;16.66;88.90
27712;BME280;2377;51.734;8.950;2022-07-23T04:09:45;98073.56;;;16.65;88.69
27712;BME280;2377;51.734;8.950;2022-07-23T04:12:12;98072.00;;;16.64;88.42
27712;BME280;2377;51.734;8.950;2022-07-23T04:14:39;98073.03;;;16.63;88.25
27712;BME280;2377;51.734;8.950;2022-07-23T04:17:07;98077.44;;;16.63;87.85
27712;BME280;2377;51.734;8.950;2022-07-23T04:19:35;98070.69;;;16.62;87.62
27712;BME280;2377;51.734;8.950;2022-07-23T04:22:05;98078.16;;;16.58;87.46
27712;BME280;2377;51.734;8.950;2022-07-23T04:24:32;98075.03;;;16.56;87.23
27712;BME280;2377;51.734;8.950;2022-07-23T04:27:00;98081.19;;;16.55;87.29
27712;BME280;2377;51.734;8.950;2022-07-23T04:29:27;98068.78;;;16.52;87.23
27712;BME280;2377;51.734;8.950;2022-07-23T04:31:54;98067.25;;;16.51;87.38
27712;BME280;2377;51.734;8.950;2022-07-23T04:34:22;98070.84;;;16.50;87.39
27712;BME280;2377;51.734;8.950;2022-07-23T04:36:52;98067.47;;;16.49;87.50
27712;BME280;2377;51.734;8.950;2022-07-23T04:39:19;98068.25;;;16.50;87.46
27712;BME280;2377;51.734;8.950;2022-07-23T04:41:47;98073.41;;;16.50;87.66
27712;BME280;2377;51.734;8.950;2022-07-23T04:44:14;98076.50;;;16.47;88.04
27712;BME280;2377;51.734;8.950;2022-07-23T04:46:41;98088.84;;;16.45;88.06
27712;BME280;2377;51.734;8.950;2022-07-23T04:49:08;98086.81;;;16.47;88.30
27712;BME280;2377;51.734;8.950;2022-07-23T04:51:36;98095.88;;;16.49;88.59
27712;BME280;2377;51.734;8.950;2022-07-23T04:54:03;98090.22;;;16.53;88.65
27712;BME280;2377;51.734;8.950;2022-07-23T04:56:31;98091.00;;;16.53;88.58
27712;BME280;2377;51.734;8.950;2022-07-23T04:58:58;98087.16;;;16.56;88.90
27712;BME280;2377;51.734;8.950;2022-07-23T05:01:25;98090.03;;;16.59;88.83
27712;BME280;2377;51.734;8.950;2022-07-23T05:03:52;98087.44;;;16.59;89.04
27712;BME280;2377;51.734;8.950;2022-07-23T05:06:19;98092.09;;;16.62;89.03
27712;BME280;2377;51.734;8.950;2022-07-23T05:08:47;98090.59;;;16.66;88.77
27712;BME280;2377;51.734;8.950;2022-07-23T05:11:14;98095.28;;;16.69;89.09
27712;BME280;2377;51.734;8.950;2022-07-23T05:13:42;98096.84;;;16.70;89.38
27712;BME280;2377;51.734;8.950;2022-07-23T05:16:09;98087.78;;;16.68;89.77
27712;BME280;2377;51.734;8.950;2022-07-23T05:18:36;98084.91;;;16.64;90.26
27712;BME280;2377;51.734;8.950;2022-07-23T05:21:03;98084.63;;;16.61;91.20
27712;BME280;2377;51.734;8.950;2022-07-23T05:23:30;98084.88;;;16.59;91.88
27712;BME280;2377;51.734;8.950;2022-07-23T05:25:58;98085.09;;;16.58;92.10
27712;BME280;2377;51.734;8.950;2022-07-23T05:28:25;98086.66;;;16.59;92.09
27712;BME280;2377;51.734;8.950;2022-07-23T05:30:53;98084.38;;;16.62;92.28
27712;BME280;2377;51.734;8.950;2022-07-23T05:33:20;98079.00;;;16.69;92.43
27712;BME280;2377;51.734;8.950;2022-07-23T05:35:47;98088.91;;;16.77;91.87
27712;BME280;2377;51.734;8.950;2022-07-23T05:38:14;98086.16;;;16.84;91.69
27712;BME280;2377;51.734;8.950;2022-07-23T05:40:42;98091.31;;;16.84;91.58
27712;BME280;2377;51.734;8.950;2022-07-23T05:43:10;98091.78;;;16.81;91.21
27712;BME280;2377;51.734;8.950;2022-07-23T05:45:37;98100.78;;;16.78;91.62
27712;BME280;2377;51.734;8.950;2022-07-23T05:48:05;98107.59;;;16.84;91.49
27712;BME280;2377;51.734;8.950;2022-07-23T05:50:32;98105.31;;;16.93;91.12
27712;BME280;2377;51.734;8.950;2022-07-23T05:52:59;98110.03;;;17.01;90.90
27712;BME280;2377;51.734;8.950;2022-07-23T05:55:26;98104.13;;;17.06;90.47
27712;BME280;2377;51.734;8.950;2022-07-23T05:57:54;98098.00;;;17.12;90.17
27712;BME280;2377;51.734;8.950;2022-07-23T06:00:23;98106.25;;;17.14;89.99
27712;BME280;2377;51.734;8.950;2022-07-23T06:02:51;98111.41;;;17.14;89.56
27712;BME280;2377;51.734;8.950;2022-07-23T06:05:18;98105.78;;;17.17;89.52
27712;BME280;2377;51.734;8.950;2022-07-23T06:07:46;98114.56;;;17.21;89.69
27712;BME280;2377;51.734;8.950;2022-07-23T06:10:13;98116.41;;;17.26;88.24
27712;BME280;2377;51.734;8.950;2022-07-23T06:12:41;98115.94;;;17.29;88.05
27712;BME280;2377;51.734;8.950;2022-07-23T06:15:09;98125.22;;;17.30;87.98
27712;BME280;2377;51.734;8.950;2022-07-23T06:17:39;98116.50;;;17.36;87.99
27712;BME280;2377;51.734;8.950;2022-07-23T06:20:09;98119.13;;;17.41;87.31
27712;BME280;2377;51.734;8.950;2022-07-23T06:22:37;98126.88;;;17.41;86.83
27712;BME280;2377;51.734;8.950;2022-07-23T06:25:06;98120.63;;;17.37;86.75
27712;BME280;2377;51.734;8.950;2022-07-23T06:27:33;98124.25;;;17.36;86.35
27712;BME280;2377;51.734;8.950;2022-07-23T06:30:00;98120.13;;;17.40;86.78
27712;BME280;2377;51.734;8.950;2022-07-23T06:32:27;98128.97;;;17.49;86.92
27712;BME280;2377;51.734;8.950;2022-07-23T06:34:56;98124.09;;;17.53;87.03
27712;BME280;2377;51.734;8.950;2022-07-23T06:37:23;98131.38;;;17.61;86.92
27712;BME280;2377;51.734;8.950;2022-07-23T06:39:50;98123.66;;;17.66;86.64
27712;BME280;2377;51.734;8.950;2022-07-23T06:42:17;98138.16;;;17.72;86.54
27712;BME280;2377;51.734;8.950;2022-07-23T06:44:44;98128.38;;;17.80;86.18
27712;BME280;2377;51.734;8.950;2022-07-23T06:47:11;98142.41;;;17.84;85.49
27712;BME280;2377;51.734;8.950;2022-07-23T06:49:38;98139.59;;;17.90;85.30
27712;BME280;2377;51.734;8.950;2022-07-23T06:52:08;98148.09;;;17.86;84.75
27712;BME280;2377;51.734;8.950;2022-07-23T06:54:35;98150.19;;;17.94;85.23
27712;BME280;2377;51.734;8.950;2022-07-23T06:57:03;98155.94;;;18.01;84.24
27712;BME280;2377;51.734;8.950;2022-07-23T06:59:30;98165.00;;;18.04;83.21
27712;BME280;2377;51.734;8.950;2022-07-23T07:01:57;98163.44;;;18.03;82.82
27712;BME280;2377;51.734;8.950;2022-07-23T07:04:24;98166.00;;;17.98;83.09
27712;BME280;2377;51.734;8.950;2022-07-23T07:06:51;98166.78;;;17.98;83.29
27712;BME280;2377;51.734;8.950;2022-07-23T07:09:19;98182.09;;;18.10;84.62
27712;BME280;2377;51.734;8.950;2022-07-23T07:11:47;98170.75;;;18.11;83.84
27712;BME280;2377;51.734;8.950;2022-07-23T07:14:14;98174.59;;;18.08;83.36
27712;BME280;2377;51.734;8.950;2022-07-23T07:16:41;98178.19;;;18.02;84.00
27712;BME280;2377;51.734;8.950;2022-07-23T07:19:08;98173.28;;;18.06;84.11
27712;BME280;2377;51.734;8.950;2022-07-23T07:21:35;98178.53;;;18.16;84.04
27712;BME280;2377;51.734;8.950;2022-07-23T07:24:03;98181.13;;;18.21;81.60
27712;BME280;2377;51.734;8.950;2022-07-23T07:26:32;98178.00;;;18.19;81.35
27712;BME280;2377;51.734;8.950;2022-07-23T07:28:59;98179.34;;;18.27;82.18
27712;BME280;2377;51.734;8.950;2022-07-23T07:31:26;98183.28;;;18.40;80.82
27712;BME280;2377;51.734;8.950;2022-07-23T07:33:53;98185.34;;;18.48;80.43
27712;BME280;2377;51.734;8.950;2022-07-23T07:36:22;98183.09;;;18.67;81.08
27712;BME280;2377;51.734;8.950;2022-07-23T07:38:50;98192.75;;;18.82;81.33
27712;BME280;2377;51.734;8.950;2022-07-23T07:41:17;98189.91;;;18.93;80.78
27712;BME280;2377;51.734;8.950;2022-07-23T07:43:50;98191.22;;;19.16;80.16
27712;BME280;2377;51.734;8.950;2022-07-23T07:46:17;98196.94;;;19.44;80.79
27712;BME280;2377;51.734;8.950;2022-07-23T07:48:44;98200.81;;;19.47;79.63
27712;BME280;2377;51.734;8.950;2022-07-23T07:51:11;98192.81;;;19.38;79.72
27712;BME280;2377;51.734;8.950;2022-07-23T07:53:38;98200.31;;;19.29;79.05
27712;BME280;2377;51.734;8.950;2022-07-23T07:56:06;98200.56;;;19.28;79.69
27712;BME280;2377;51.734;8.950;2022-07-23T07:58:33;98200.56;;;19.22;79.33
27712;BME280;2377;51.734;8.950;2022-07-23T08:01:02;98204.19;;;19.32;78.80
27712;BME280;2377;51.734;8.950;2022-07-23T08:03:29;98212.50;;;19.29;78.85
27712;BME280;2377;51.734;8.950;2022-07-23T08:05:56;98206.28;;;19.45;76.85
27712;BME280;2377;51.734;8.950;2022-07-23T08:08:24;98209.91;;;19.44;74.02
27712;BME280;2377;51.734;8.950;2022-07-23T08:10:51;98205.50;;;19.39;76.10
27712;BME280;2377;51.734;8.950;2022-07-23T08:13:18;98205.22;;;19.56;74.84
27712;BME280;2377;51.734;8.950;2022-07-23T08:15:45;98214.56;;;19.83;75.23
27712;BME280;2377;51.734;8.950;2022-07-23T08:18:14;98217.63;;;20.05;74.12
27712;BME280;2377;51.734;8.950;2022-07-23T08:20:41;98221.97;;;20.31;70.24
27712;BME280;2377;51.734;8.950;2022-07-23T08:23:09;98221.22;;;20.25;68.87
27712;BME280;2377;51.734;8.950;2022-07-23T08:25:38;98224.13;;;20.03;69.79
27712;BME280;2377;51.734;8.950;2022-07-23T08:28:08;98225.97;;;19.97;71.42
27712;BME280;2377;51.734;8.950;2022-07-23T08:30:37;98227.03;;;19.81;71.89
27712;BME280;2377;51.734;8.950;2022-07-23T08:33:07;98223.91;;;19.74;71.41
27712;BME280;2377;51.734;8.950;2022-07-23T08:35:41;98229.13;;;19.69;72.43
27712;BME280;2377;51.734;8.950;2022-07-23T08:38:11;98226.47;;;19.89;73.39
27712;BME280;2377;51.734;8.950;2022-07-23T08:40:42;98235.22;;;20.24;72.77
27712;BME280;2377;51.734;8.950;2022-07-23T08:43:12;98233.84;;;20.57;71.65
27712;BME280;2377;51.734;8.950;2022-07-23T08:45:42;98231.75;;;20.54;69.12
27712;BME280;2377;51.734;8.950;2022-07-23T08:48:13;98242.19;;;20.39;69.11
27712;BME280;2377;51.734;8.950;2022-07-23T08:50:45;98226.41;;;20.20;69.94
27712;BME280;2377;51.734;8.950;2022-07-23T08:53:13;98243.28;;;20.22;70.53
27712;BME280;2377;51.734;8.950;2022-07-23T08:55:44;98239.09;;;20.37;70.85
27712;BME280;2377;51.734;8.950;2022-07-23T08:58:12;98245.31;;;20.46;67.79
27712;BME280;2377;51.734;8.950;2022-07-23T09:00:39;98245.97;;;20.77;70.12
27712;BME280;2377;51.734;8.950;2022-07-23T09:03:06;98248.47;;;20.98;69.05
27712;BME280;2377;51.734;8.950;2022-07-23T09:05:33;98256.22;;;21.03;67.65
27712;BME280;2377;51.734;8.950;2022-07-23T09:08:10;98245.41;;;20.80;68.64
27712;BME280;2377;51.734;8.950;2022-07-23T09:10:54;98254.28;;;20.74;67.77
27712;BME280;2377;51.734;8.950;2022-07-23T09:13:32;98259.00;;;20.62;66.19
27712;BME280;2377;51.734;8.950;2022-07-23T09:16:04;98256.41;;;20.62;67.52
27712;BME280;2377;51.734;8.950;2022-07-23T09:18:39;98254.25;;;20.84;68.20
27712;BME280;2377;51.734;8.950;2022-07-23T09:21:22;98254.53;;;21.22;68.20
27712;BME280;2377;51.734;8.950;2022-07-23T09:23:58;98257.34;;;21.65;67.03
27712;BME280;2377;51.734;8.950;2022-07-23T09:26:31;98252.25;;;21.84;63.81
27712;BME280;2377;51.734;8.950;2022-07-23T09:29:06;98259.53;;;21.82;61.50
27712;BME280;2377;51.734;8.950;2022-07-23T09:31:52;98270.41;;;21.60;61.83
27712;BME280;2377;51.734;8.950;2022-07-23T09:34:22;98252.59;;;21.43;63.27
27712;BME280;2377;51.734;8.950;2022-07-23T09:36:53;98254.94;;;21.40;64.83
27712;BME280;2377;51.734;8.950;2022-07-23T09:39:28;98258.69;;;21.63;65.30
27712;BME280;2377;51.734;8.950;2022-07-23T09:41:57;98251.94;;;21.91;64.48
27712;BME280;2377;51.734;8.950;2022-07-23T09:44:24;98261.31;;;21.92;64.39
27712;BME280;2377;51.734;8.950;2022-07-23T09:46:59;98247.84;;;21.85;60.77
27712;BME280;2377;51.734;8.950;2022-07-23T09:49:27;98256.81;;;21.68;62.35
27712;BME280;2377;51.734;8.950;2022-07-23T09:51:57;98252.16;;;21.65;61.96
27712;BME280;2377;51.734;8.950;2022-07-23T09:54:31;98258.38;;;21.69;62.44
27712;BME280;2377;51.734;8.950;2022-07-23T09:57:02;98260.84;;;21.85;63.33
27712;BME280;2377;51.734;8.950;2022-07-23T09:59:33;98262.53;;;22.00;62.68
27712;BME280;2377;51.734;8.950;2022-07-23T10:02:02;98252.91;;;22.24;60.56
27712;BME280;2377;51.734;8.950;2022-07-23T10:04:31;98245.41;;;22.17;60.35
27712;BME280;2377;51.734;8.950;2022-07-23T10:07:00;98253.22;;;22.23;61.47
27712;BME280;2377;51.734;8.950;2022-07-23T10:09:33;98264.22;;;22.38;61.31
27712;BME280;2377;51.734;8.950;2022-07-23T10:12:04;98262.78;;;22.27;60.48
27712;BME280;2377;51.734;8.950;2022-07-23T10:14:46;98261.66;;;22.33;60.65
27712;BME280;2377;51.734;8.950;2022-07-23T10:17:13;98261.56;;;22.44;60.16
27712;BME280;2377;51.734;8.950;2022-07-23T10:19:41;98265.38;;;22.51;60.77
27712;BME280;2377;51.734;8.950;2022-07-23T10:22:11;98270.06;;;22.73;62.36
27712;BME280;2377;51.734;8.950;2022-07-23T10:24:58;98271.63;;;22.74;58.64
27712;BME280;2377;51.734;8.950;2022-07-23T10:28:06;98266.19;;;22.71;57.37
27712;BME280;2377;51.734;8.950;2022-07-23T10:30:43;98258.69;;;22.64;58.59
27712;BME280;2377;51.734;8.950;2022-07-23T10:33:31;98257.94;;;22.64;58.46
27712;BME280;2377;51.734;8.950;2022-07-23T10:36:08;98262.72;;;22.56;57.56
27712;BME280;2377;51.734;8.950;2022-07-23T10:38:48;98263.38;;;22.43;57.38
27712;BME280;2377;51.734;8.950;2022-07-23T10:41:32;98260.91;;;22.33;57.99
27712;BME280;2377;51.734;8.950;2022-07-23T10:44:08;98260.34;;;22.36;56.15
27712;BME280;2377;51.734;8.950;2022-07-23T10:46:36;98251.63;;;22.46;59.98
27712;BME280;2377;51.734;8.950;2022-07-23T10:49:27;98254.41;;;22.54;58.84
27712;BME280;2377;51.734;8.950;2022-07-23T10:52:22;98254.25;;;22.65;58.10
27712;BME280;2377;51.734;8.950;2022-07-23T10:54:52;98250.81;;;22.69;58.67
27712;BME280;2377;51.734;8.950;2022-07-23T10:57:22;98256.47;;;22.76;59.37
27712;BME280;2377;51.734;8.950;2022-07-23T11:00:22;98252.81;;;22.96;59.00
27712;BME280;2377;51.734;8.950;2022-07-23T11:02:51;98267.28;;;23.08;58.17
27712;BME280;2377;51.734;8.950;2022-07-23T11:05:22;98254.38;;;23.16;54.22
27712;BME280;2377;51.734;8.950;2022-07-23T11:08:16;98257.34;;;23.10;56.82
27712;BME280;2377;51.734;8.950;2022-07-23T11:10:49;98262.25;;;23.30;58.24
27712;BME280;2377;51.734;8.950;2022-07-23T11:13:39;98252.81;;;23.34;57.73
27712;BME280;2377;51.734;8.950;2022-07-23T11:16:14;98260.06;;;23.37;56.56
27712;BME280;2377;51.734;8.950;2022-07-23T11:19:16;98257.75;;;23.36;56.30
27712;BME280;2377;51.734;8.950;2022-07-23T11:21:49;98256.06;;;23.26;55.59
27712;BME280;2377;51.734;8.950;2022-07-23T11:24:22;98245.50;;;22.98;55.48
27712;BME280;2377;51.734;8.950;2022-07-23T11:26:58;98254.69;;;23.15;57.73
27712;BME280;2377;51.734;8.950;2022-07-23T11:29:44;98255.50;;;23.29;55.99
27712;BME280;2377;51.734;8.950;2022-07-23T11:32:31;98255.16;;;23.36;54.36
27712;BME280;2377;51.734;8.950;2022-07-23T11:34:59;98248.53;;;23.25;55.12
27712;BME280;2377;51.734;8.950;2022-07-23T11:37:32;98257.13;;;23.25;55.36
27712;BME280;2377;51.734;8.950;2022-07-23T11:40:02;98250.78;;;23.31;53.94
27712;BME280;2377;51.734;8.950;2022-07-23T11:42:30;98245.16;;;23.24;55.30
27712;BME280;2377;51.734;8.950;2022-07-23T11:44:59;98254.38;;;23.35;56.29
27712;BME280;2377;51.734;8.950;2022-07-23T11:47:27;98254.63;;;23.53;56.86
27712;BME280;2377;51.734;8.950;2022-07-23T11:49:56;98245.66;;;23.59;55.32
27712;BME280;2377;51.734;8.950;2022-07-23T11:52:25;98261.59;;;23.57;53.46
27712;BME280;2377;51.734;8.950;2022-07-23T11:54:54;98255.88;;;23.55;54.69
27712;BME280;2377;51.734;8.950;2022-07-23T11:57:26;98254.41;;;23.49;52.72
27712;BME280;2377;51.734;8.950;2022-07-23T11:59:57;98247.50;;;23.39;53.80
27712;BME280;2377;51.734;8.950;2022-07-23T12:02:25;98253.56;;;23.35;56.72
27712;BME280;2377;51.734;8.950;2022-07-23T12:04:53;98261.94;;;23.51;54.42
27712;BME280;2377;51.734;8.950;2022-07-23T12:07:30;98257.13;;;23.58;54.63
27712;BME280;2377;51.734;8.950;2022-07-23T12:10:00;98256.00;;;23.64;53.76
27712;BME280;2377;51.734;8.950;2022-07-23T12:12:35;98258.88;;;23.62;54.19
27712;BME280;2377;51.734;8.950;2022-07-23T12:15:04;98247.16;;;23.79;54.60
27712;BME280;2377;51.734;8.950;2022-07-23T12:17:37;98247.91;;;23.79;53.77
27712;BME280;2377;51.734;8.950;2022-07-23T12:20:07;98248.81;;;23.89;55.09
27712;BME280;2377;51.734;8.950;2022-07-23T12:22:38;98244.44;;;23.84;50.64
27712;BME280;2377;51.734;8.950;2022-07-23T12:25:09;98248.53;;;23.90;52.13
27712;BME280;2377;51.734;8.950;2022-07-23T12:27:37;98247.47;;;23.91;50.75
27712;BME280;2377;51.734;8.950;2022-07-23T12:30:22;98251.41;;;23.89;51.01
27712;BME280;2377;51.734;8.950;2022-07-23T12:32:53;98256.56;;;23.94;54.36
27712;BME280;2377;51.734;8.950;2022-07-23T12:35:22;98250.66;;;24.02;50.05
27712;BME280;2377;51.734;8.950;2022-07-23T12:37:51;98246.69;;;24.04;51.21
27712;BME280;2377;51.734;8.950;2022-07-23T12:40:25;98255.13;;;24.01;52.45
27712;BME280;2377;51.734;8.950;2022-07-23T12:42:56;98253.84;;;24.13;53.71
27712;BME280;2377;51.734;8.950;2022-07-23T12:45:24;98258.22;;;24.17;49.67
27712;BME280;2377;51.734;8.950;2022-07-23T12:48:00;98257.06;;;24.10;50.00
27712;BME280;2377;51.734;8.950;2022-07-23T12:50:39;98250.41;;;24.03;52.30
27712;BME280;2377;51.734;8.950;2022-07-23T12:53:11;98257.25;;;24.13;53.11
27712;BME280;2377;51.734;8.950;2022-07-23T12:55:40;98256.41;;;24.18;51.07
27712;BME280;2377;51.734;8.950;2022-07-23T12:58:14;98252.31;;;24.25;52.49
27712;BME280;2377;51.734;8.950;2022-07-23T13:01:04;98258.81;;;24.28;50.34
27712;BME280;2377;51.734;8.950;2022-07-23T13:03:37;98268.28;;;24.10;49.67
27712;BME280;2377;51.734;8.950;2022-07-23T13:06:07;98259.47;;;24.06;50.01
27712;BME280;2377;51.734;8.950;2022-07-23T13:08:38;98262.97;;;24.01;50.13
27712;BME280;2377;51.734;8.950;2022-07-23T13:11:07;98258.69;;;24.05;50.38
27712;BME280;2377;51.734;8.950;2022-07-23T13:13:35;98260.84;;;24.03;50.84
27712;BME280;2377;51.734;8.950;2022-07-23T13:16:03;98258.50;;;24.02;50.64
27712;BME280;2377;51.734;8.950;2022-07-23T13:18:32;98262.00;;;24.11;51.38
27712;BME280;2377;51.734;8.950;2022-07-23T13:21:00;98261.31;;;24.19;51.48
27712;BME280;2377;51.734;8.950;2022-07-23T13:23:28;98266.53;;;24.33;50.29